Time;durP1;ratioP1;P1;durP2;ratioP2;P2;SDS_P1;SDS_P2;PMS_P1;PMS_P2;Temp;Humidity;BMP_temperature;BMP_pressure;BME280_temperature;BME280_humidity;BME280_pressure;Samples;Min_cycle;Max_cycle;Signal;HPM_P1;HPM_P2
2022/01/03 00:02:25;;;;;;;3.67;1.53;;;12.50;44.70;;;;;;4995044;28;20192;-78
2022/01/03 00:04:52;;;;;;;3.65;1.83;;;12.50;44.80;;;;;;4995853;28;20493;-78
2022/01/03 00:07:19;;;;;;;5.30;1.58;;;12.40;44.80;;;;;;4994721;28;20193;-78
2022/01/03 00:09:47;;;;;;;3.17;1.65;;;12.50;45.00;;;;;;4994586;28;20189;-78
2022/01/03 00:12:16;;;;;;;2.55;1.52;;;12.50;44.90;;;;;;4994827;28;20201;-78
2022/01/03 00:14:45;;;;;;;4.97;1.50;;;12.50;44.80;;;;;;4979498;28;20200;-78
2022/01/03 00:17:18;;;;;;;3.20;1.80;;;12.50;45.00;;;;;;4984273;28;20189;-78
2022/01/03 00:19:46;;;;;;;2.10;1.50;;;12.50;45.10;;;;;;4996384;28;20486;-78
2022/01/03 00:22:14;;;;;;;3.42;1.45;;;12.50;45.10;;;;;;4996095;28;20511;-78
2022/01/03 00:24:46;;;;;;;3.03;1.30;;;12.40;45.10;;;;;;4996499;28;20200;-78
2022/01/03 00:27:20;;;;;;;3.97;1.70;;;12.50;45.20;;;;;;4996018;28;20195;-78
2022/01/03 00:29:51;;;;;;;3.45;1.83;;;12.40;45.30;;;;;;4996443;28;20435;-78
2022/01/03 00:32:19;;;;;;;3.47;1.85;;;12.40;45.40;;;;;;4995947;28;20193;-77
2022/01/03 00:34:49;;;;;;;3.30;1.37;;;12.40;45.50;;;;;;4995588;28;20607;-78
2022/01/03 00:37:19;;;;;;;3.47;1.90;;;12.40;45.40;;;;;;4996163;28;20981;-78
2022/01/03 00:39:48;;;;;;;4.30;2.10;;;12.30;45.40;;;;;;4995797;28;20301;-79
2022/01/03 00:42:18;;;;;;;2.47;1.63;;;12.30;45.40;;;;;;4996265;28;20197;-78
2022/01/03 00:44:58;;;;;;;5.88;1.65;;;12.30;45.40;;;;;;4995753;28;20185;-78
2022/01/03 00:47:25;;;;;;;2.30;1.67;;;12.30;45.50;;;;;;4996112;28;20203;-78
2022/01/03 00:49:54;;;;;;;2.17;1.27;;;12.30;45.50;;;;;;4995380;28;20200;-78
2022/01/03 00:52:25;;;;;;;4.43;1.67;;;12.20;45.50;;;;;;4995428;28;20193;-79
2022/01/03 00:54:54;;;;;;;3.00;1.70;;;12.30;45.90;;;;;;4995960;28;20454;-78
2022/01/03 00:57:32;;;;;;;3.17;1.40;;;12.30;45.70;;;;;;4995439;28;20211;-78
2022/01/03 01:00:05;;;;;;;3.08;1.42;;;12.30;45.80;;;;;;4995494;28;20307;-78
2022/01/03 01:02:36;;;;;;;3.05;1.88;;;12.20;46.10;;;;;;4995437;28;20204;-78
2022/01/03 01:05:07;;;;;;;2.15;1.05;;;12.20;46.40;;;;;;4995655;28;20284;-78
2022/01/03 01:07:34;;;;;;;2.90;1.58;;;12.20;46.60;;;;;;4994942;28;20597;-78
2022/01/03 01:10:04;;;;;;;2.63;1.40;;;12.20;47.10;;;;;;4995492;28;20647;-78
2022/01/03 01:12:37;;;;;;;4.60;1.95;;;12.20;47.00;;;;;;4995697;28;20200;-78
2022/01/03 01:15:05;;;;;;;4.15;1.58;;;12.20;47.10;;;;;;4995380;28;20535;-78
2022/01/03 01:17:33;;;;;;;2.90;1.38;;;12.10;47.40;;;;;;4995250;28;20224;-78
2022/01/03 01:20:00;;;;;;;3.33;1.33;;;12.10;47.60;;;;;;4985387;28;20217;-79
2022/01/03 01:22:28;;;;;;;3.25;2.00;;;12.10;47.80;;;;;;4975862;28;20197;-78
2022/01/03 01:25:22;;;;;;;2.90;1.60;;;12.10;48.00;;;;;;4982316;28;20656;-78
2022/01/03 01:27:50;;;;;;;3.25;1.70;;;12.10;48.10;;;;;;4978394;28;20276;-78
2022/01/03 01:30:19;;;;;;;3.90;1.75;;;12.10;48.00;;;;;;4995441;28;20665;-78
2022/01/03 01:32:53;;;;;;;3.00;1.45;;;12.10;48.30;;;;;;4987396;28;20270;-79
2022/01/03 01:35:24;;;;;;;2.92;1.40;;;12.10;48.30;;;;;;4991272;28;20211;-79
2022/01/03 01:37:55;;;;;;;2.30;1.40;;;12.00;48.60;;;;;;4995271;28;20769;-79
2022/01/03 01:40:27;;;;;;;5.75;1.58;;;12.00;48.90;;;;;;4983955;28;20311;-78
2022/01/03 01:42:57;;;;;;;3.67;1.25;;;11.90;49.20;;;;;;4985013;28;20590;-79
2022/01/03 01:45:27;;;;;;;4.95;1.80;;;11.90;49.50;;;;;;4977078;28;20189;-79
2022/01/03 01:47:59;;;;;;;6.55;2.00;;;11.90;50.00;;;;;;4984962;28;20647;-78
2022/01/03 01:50:28;;;;;;;4.28;2.05;;;11.90;49.90;;;;;;4994900;28;20259;-78
2022/01/03 01:52:56;;;;;;;2.95;1.90;;;11.90;50.10;;;;;;4984889;28;20190;-78
2022/01/03 01:55:24;;;;;;;3.25;1.50;;;11.90;50.40;;;;;;4975467;28;20205;-78
2022/01/03 01:58:04;;;;;;;3.25;1.80;;;11.90;50.80;;;;;;4983200;28;20189;-78
2022/01/03 02:00:33;;;;;;;3.10;1.80;;;11.80;51.20;;;;;;4981728;28;20239;-78
2022/01/03 02:03:25;;;;;;;4.05;1.50;;;11.80;51.60;;;;;;4991629;28;20192;-78
2022/01/03 02:06:08;;;;;;;3.25;1.73;;;11.80;51.80;;;;;;4994730;28;20189;-78
2022/01/03 02:08:44;;;;;;;2.47;1.77;;;11.70;52.20;;;;;;4984676;28;20189;-78
2022/01/03 02:11:20;;;;;;;3.28;2.33;;;11.80;52.30;;;;;;4975158;28;20197;-78
2022/01/03 02:13:50;;;;;;;2.78;1.50;;;11.70;52.90;;;;;;4985225;28;20188;-78
2022/01/03 02:16:18;;;;;;;4.88;1.85;;;11.70;52.80;;;;;;4990378;28;20256;-78
2022/01/03 02:18:45;;;;;;;2.95;1.98;;;11.70;53.20;;;;;;4987527;28;20714;-78
2022/01/03 02:21:14;;;;;;;6.82;1.50;;;11.70;53.70;;;;;;4993815;28;20711;-79
2022/01/03 02:23:41;;;;;;;3.25;1.48;;;11.70;54.00;;;;;;4994342;28;20204;-78
2022/01/03 02:26:09;;;;;;;4.25;1.67;;;11.70;54.10;;;;;;4993774;28;20192;-78
2022/01/03 02:28:36;;;;;;;4.13;2.05;;;11.60;54.60;;;;;;4994192;28;20197;-78
2022/01/03 02:31:08;;;;;;;2.90;1.48;;;11.60;55.40;;;;;;4993653;28;20181;-78
2022/01/03 02:33:35;;;;;;;3.65;1.65;;;11.60;55.50;;;;;;4993210;28;20193;-78
2022/01/03 02:36:05;;;;;;;6.55;1.85;;;11.60;55.50;;;;;;4993731;28;20189;-78
2022/01/03 02:38:34;;;;;;;5.45;2.28;;;11.50;56.70;;;;;;4993855;28;20303;-78
2022/01/03 02:41:02;;;;;;;4.22;1.48;;;11.50;56.30;;;;;;4993782;28;20307;-78
2022/01/03 02:43:30;;;;;;;3.22;1.35;;;11.50;56.40;;;;;;4993682;28;20189;-78
2022/01/03 02:46:02;;;;;;;5.03;1.13;;;11.50;56.70;;;;;;4993910;28;20189;-78
2022/01/03 02:48:29;;;;;;;8.88;2.15;;;11.50;56.90;;;;;;4993496;28;20284;-79
2022/01/03 02:50:59;;;;;;;4.07;1.67;;;11.40;57.10;;;;;;4993161;28;20185;-79
2022/01/03 02:53:27;;;;;;;3.80;1.92;;;11.50;57.10;;;;;;4993592;28;20651;-79
2022/01/03 02:55:56;;;;;;;8.07;1.88;;;11.40;57.20;;;;;;4993118;28;20648;-79
2022/01/03 02:58:26;;;;;;;5.45;1.17;;;11.50;57.60;;;;;;4993469;28;20201;-78
2022/01/03 03:00:53;;;;;;;3.92;1.85;;;11.40;57.50;;;;;;4993045;28;20220;-77
2022/01/03 03:03:22;;;;;;;4.75;2.33;;;11.40;57.70;;;;;;4993386;28;20219;-79
2022/01/03 03:05:54;;;;;;;4.38;1.48;;;11.40;57.90;;;;;;4993105;28;20185;-79
2022/01/03 03:08:22;;;;;;;3.75;1.20;;;11.40;57.70;;;;;;4992746;28;20193;-78
2022/01/03 03:10:49;;;;;;;3.85;1.20;;;11.50;57.90;;;;;;4993336;28;20530;-79
2022/01/03 03:13:18;;;;;;;4.63;1.60;;;11.50;58.00;;;;;;4992804;28;20189;-78
2022/01/03 03:15:46;;;;;;;2.35;1.10;;;11.50;57.80;;;;;;4992917;28;20228;-79
2022/01/03 03:18:13;;;;;;;2.35;1.17;;;11.50;57.90;;;;;;4992405;28;20220;-78
2022/01/03 03:20:43;;;;;;;3.58;1.85;;;11.60;58.00;;;;;;4992990;28;20220;-78
2022/01/03 03:23:11;;;;;;;3.17;1.10;;;11.60;57.70;;;;;;4984347;28;20671;-78
2022/01/03 03:25:38;;;;;;;2.80;1.70;;;11.60;57.80;;;;;;4985407;28;20189;-77
2022/01/03 03:28:10;;;;;;;4.53;1.80;;;11.60;57.90;;;;;;4954315;29;20289;-78
2022/01/03 03:30:41;;;;;;;3.30;1.45;;;11.60;57.80;;;;;;4967406;28;20601;-78
2022/01/03 03:33:12;;;;;;;4.45;1.60;;;11.70;57.70;;;;;;4992835;28;20192;-79
2022/01/03 03:35:46;;;;;;;5.78;1.80;;;11.70;57.90;;;;;;4985680;28;20189;-78
2022/01/03 03:38:14;;;;;;;3.50;1.60;;;11.70;58.00;;;;;;4972987;28;20202;-79
2022/01/03 03:40:45;;;;;;;3.13;1.85;;;11.70;58.10;;;;;;4983238;28;20236;-78
2022/01/03 03:43:13;;;;;;;4.60;1.70;;;11.70;58.10;;;;;;4980005;28;20565;-79
2022/01/03 03:45:42;;;;;;;3.70;1.40;;;11.70;58.30;;;;;;4992541;28;20200;-78
2022/01/03 03:48:15;;;;;;;7.68;1.83;;;11.70;58.30;;;;;;4982780;28;20271;-78
2022/01/03 03:50:43;;;;;;;3.25;1.13;;;11.70;58.80;;;;;;4973326;28;20219;-78
2022/01/03 03:53:18;;;;;;;5.97;1.67;;;11.70;58.20;;;;;;4982067;28;20231;-79
2022/01/03 03:55:45;;;;;;;3.35;1.40;;;11.70;58.30;;;;;;4992735;28;20193;-79
2022/01/03 03:58:14;;;;;;;10.18;1.75;;;11.70;58.40;;;;;;4983191;28;20193;-79
2022/01/03 04:00:43;;;;;;;3.20;1.45;;;11.60;58.50;;;;;;4983809;28;20240;-78
2022/01/03 04:03:10;;;;;;;4.45;1.60;;;11.60;58.50;;;;;;4973192;28;20189;-79
2022/01/03 04:05:38;;;;;;;3.92;1.50;;;11.60;58.60;;;;;;4980736;28;20193;-78
2022/01/03 04:08:21;;;;;;;4.68;2.10;;;11.60;58.80;;;;;;4992728;28;20200;-78
2022/01/03 04:11:06;;;;;;;3.65;1.33;;;11.60;58.80;;;;;;4983723;28;20209;-79
2022/01/03 04:13:33;;;;;;;3.95;1.30;;;11.60;58.80;;;;;;4973425;28;20229;-78
2022/01/03 04:16:03;;;;;;;3.00;1.40;;;11.60;58.80;;;;;;4979514;28;20185;-79
2022/01/03 04:18:30;;;;;;;3.65;1.63;;;11.60;59.00;;;;;;4988596;28;20271;-79
2022/01/03 04:20:58;;;;;;;5.20;1.83;;;11.60;58.90;;;;;;4992284;28;20228;-79
2022/01/03 04:23:25;;;;;;;3.25;1.30;;;11.60;58.80;;;;;;4992553;28;20200;-79
2022/01/03 04:25:55;;;;;;;3.88;1.17;;;11.60;59.40;;;;;;4992352;28;20193;-79
2022/01/03 04:28:23;;;;;;;7.18;1.45;;;11.60;58.80;;;;;;4992532;28;20634;-79
2022/01/03 04:30:51;;;;;;;3.40;1.08;;;11.60;58.60;;;;;;4992316;28;20197;-79
2022/01/03 04:33:20;;;;;;;5.30;1.80;;;11.60;58.60;;;;;;4991957;28;20193;-79
2022/01/03 04:35:47;;;;;;;5.45;1.15;;;11.60;58.40;;;;;;4991905;28;20702;-79
2022/01/03 04:38:16;;;;;;;2.78;1.35;;;11.60;58.30;;;;;;4990702;28;20208;-79
2022/01/03 04:40:47;;;;;;;5.75;1.55;;;11.60;58.00;;;;;;4992343;28;20213;-79
2022/01/03 04:43:17;;;;;;;3.15;1.48;;;11.60;57.90;;;;;;4995676;28;20185;-78
2022/01/03 04:45:50;;;;;;;3.13;1.42;;;11.60;57.90;;;;;;4996269;28;20659;-79
2022/01/03 04:48:19;;;;;;;4.00;1.60;;;11.60;57.70;;;;;;4995946;28;20193;-79
2022/01/03 04:50:47;;;;;;;3.65;1.42;;;11.60;57.70;;;;;;4995589;28;20196;-79
2022/01/03 04:53:18;;;;;;;4.78;1.30;;;11.60;57.70;;;;;;4976801;28;20601;-79
2022/01/03 04:55:45;;;;;;;3.35;1.50;;;11.70;57.70;;;;;;4980603;28;20231;-78
2022/01/03 04:58:13;;;;;;;7.35;1.85;;;11.70;57.60;;;;;;4996028;28;20196;-78
2022/01/03 05:00:42;;;;;;;3.97;1.10;;;11.70;57.40;;;;;;4995416;28;20193;-79
2022/01/03 05:03:10;;;;;;;5.00;1.90;;;11.70;57.20;;;;;;4995675;28;20200;-78
2022/01/03 05:05:39;;;;;;;3.33;1.40;;;11.70;57.20;;;;;;4995552;28;20643;-78
2022/01/03 05:08:06;;;;;;;5.05;1.52;;;11.70;57.20;;;;;;4995191;28;20280;-78
2022/01/03 05:10:34;;;;;;;4.20;1.25;;;11.70;57.10;;;;;;4995574;28;20239;-79
2022/01/03 05:13:04;;;;;;;5.10;1.40;;;11.70;57.10;;;;;;4995452;28;20197;-78
2022/01/03 05:15:31;;;;;;;3.03;1.92;;;11.70;57.10;;;;;;4995958;28;20197;-79
2022/01/03 05:17:59;;;;;;;4.68;1.00;;;11.70;57.10;;;;;;4995012;28;20622;-79
2022/01/03 05:20:26;;;;;;;4.25;1.40;;;11.70;57.00;;;;;;4995849;28;20283;-79
2022/01/03 05:22:57;;;;;;;3.25;1.88;;;11.70;57.00;;;;;;4980050;28;20197;-79
2022/01/03 05:25:25;;;;;;;5.18;1.30;;;11.70;57.00;;;;;;4987579;28;20185;-79
2022/01/03 05:27:53;;;;;;;7.90;1.50;;;11.70;56.90;;;;;;4976024;28;20202;-79
2022/01/03 05:30:20;;;;;;;5.65;1.40;;;11.60;57.10;;;;;;4989037;28;20288;-79
2022/01/03 05:32:48;;;;;;;6.47;1.48;;;11.60;57.10;;;;;;4995180;28;20276;-78
2022/01/03 05:35:15;;;;;;;4.57;1.70;;;11.70;57.10;;;;;;4981834;28;20194;-79
2022/01/03 05:37:42;;;;;;;4.15;1.50;;;11.70;57.20;;;;;;4994827;28;20287;-79
2022/01/03 05:40:12;;;;;;;5.63;1.50;;;11.60;57.20;;;;;;4994239;28;20619;-79
2022/01/03 05:42:41;;;;;;;3.35;1.05;;;11.60;57.20;;;;;;4983742;28;20220;-78
2022/01/03 05:45:15;;;;;;;5.22;1.02;;;11.60;57.30;;;;;;4994383;28;20309;-78
2022/01/03 05:47:46;;;;;;;4.13;1.20;;;11.60;57.40;;;;;;4955940;29;20204;-79
2022/01/03 05:50:14;;;;;;;3.72;1.63;;;11.60;57.30;;;;;;4958169;28;20230;-79
2022/01/03 05:52:42;;;;;;;3.45;1.48;;;11.60;57.30;;;;;;4993753;28;20197;-79
2022/01/03 05:55:12;;;;;;;3.10;0.93;;;11.60;57.40;;;;;;4994194;28;20193;-75
2022/01/03 05:57:40;;;;;;;6.30;0.90;;;11.50;57.50;;;;;;4961009;28;20201;-79
2022/01/03 06:00:12;;;;;;;2.53;1.00;;;11.50;57.50;;;;;;4985883;28;20193;-78
2022/01/03 06:02:42;;;;;;;3.80;1.85;;;11.60;57.50;;;;;;4975356;28;20767;-78
2022/01/03 06:05:32;;;;;;;2.55;1.25;;;11.50;57.20;;;;;;4993564;28;20201;-78
2022/01/03 06:08:01;;;;;;;5.05;1.30;;;11.50;57.40;;;;;;4987868;28;20182;-79
2022/01/03 06:10:30;;;;;;;8.25;1.48;;;11.50;57.40;;;;;;4975354;28;20197;-78
2022/01/03 06:12:58;;;;;;;3.67;1.30;;;11.50;57.40;;;;;;4980492;28;20240;-79
2022/01/03 06:15:30;;;;;;;5.63;1.70;;;11.50;57.40;;;;;;4988294;28;20181;-79
2022/01/03 06:17:58;;;;;;;7.28;1.35;;;11.50;57.40;;;;;;4988676;28;20225;-79
2022/01/03 06:20:25;;;;;;;6.10;1.50;;;11.50;57.40;;;;;;4993868;28;20639;-79
2022/01/03 06:22:54;;;;;;;2.95;1.58;;;11.50;57.00;;;;;;4994444;28;20583;-78
2022/01/03 06:25:22;;;;;;;5.15;1.48;;;11.50;57.20;;;;;;4994148;28;20219;-79
2022/01/03 06:27:51;;;;;;;3.20;1.48;;;11.50;57.30;;;;;;4994354;28;20259;-79
2022/01/03 06:30:18;;;;;;;3.33;1.27;;;11.50;57.00;;;;;;4993746;28;20573;-79
2022/01/03 06:32:47;;;;;;;9.57;1.77;;;11.50;57.10;;;;;;4993429;28;20185;-78
2022/01/03 06:35:16;;;;;;;4.78;1.33;;;11.50;57.20;;;;;;4993989;28;20200;-79
2022/01/03 06:37:44;;;;;;;5.45;1.70;;;11.50;57.10;;;;;;4993510;28;20196;-79
2022/01/03 06:40:13;;;;;;;4.53;1.75;;;11.50;57.10;;;;;;4994183;28;20197;-79
2022/01/03 06:42:40;;;;;;;3.92;1.05;;;11.50;57.10;;;;;;4993560;28;20251;-78
2022/01/03 06:45:09;;;;;;;7.30;1.40;;;11.50;57.20;;;;;;4978421;28;20197;-78
2022/01/03 06:47:37;;;;;;;4.00;1.55;;;11.60;57.20;;;;;;4992076;28;20232;-78
2022/01/03 06:50:20;;;;;;;7.00;0.90;;;11.60;57.10;;;;;;4984153;28;20186;-79
2022/01/03 06:52:52;;;;;;;5.53;1.23;;;11.60;56.90;;;;;;4991942;28;20188;-79
2022/01/03 06:55:19;;;;;;;4.32;1.25;;;11.60;57.00;;;;;;4991492;28;20189;-79
2022/01/03 06:57:50;;;;;;;4.20;1.52;;;11.60;56.90;;;;;;4991312;28;20205;-79
2022/01/03 07:00:19;;;;;;;5.95;1.27;;;11.60;56.70;;;;;;4978044;28;20609;-79
2022/01/03 07:02:48;;;;;;;3.90;1.40;;;11.70;56.70;;;;;;4991073;28;20228;-79
2022/01/03 07:05:16;;;;;;;6.28;1.90;;;11.70;56.70;;;;;;4981974;28;20217;-78
2022/01/03 07:07:43;;;;;;;8.77;1.55;;;11.70;56.80;;;;;;4978407;28;20284;-79
2022/01/03 07:10:11;;;;;;;4.78;1.33;;;11.70;56.80;;;;;;4973773;28;20205;-79
2022/01/03 07:12:40;;;;;;;1.65;0.93;;;11.60;56.80;;;;;;4975570;28;20189;-79
2022/01/03 07:20:53;;;;;;;5.22;1.20;;;11.60;56.90;;;;;;4973642;28;20220;-79
2022/01/03 07:23:22;;;;;;;7.75;1.60;;;11.60;56.90;;;;;;4987737;28;20691;-79
2022/01/03 07:25:52;;;;;;;3.72;1.55;;;11.70;56.90;;;;;;4991550;28;20280;-78
2022/01/03 07:28:19;;;;;;;3.22;1.40;;;11.70;56.70;;;;;;4990970;28;20644;-76
2022/01/03 07:30:47;;;;;;;2.88;1.38;;;11.70;56.70;;;;;;4991285;28;20185;-78
2022/01/03 07:33:16;;;;;;;4.03;1.13;;;11.70;56.70;;;;;;4991575;28;20197;-78
2022/01/03 07:35:44;;;;;;;2.88;1.23;;;11.70;56.70;;;;;;4990634;28;20228;-79
2022/01/03 07:38:11;;;;;;;2.95;1.60;;;11.70;56.70;;;;;;4973130;28;20197;-79
2022/01/03 07:40:40;;;;;;;6.95;1.58;;;11.70;56.70;;;;;;4976637;28;20189;-79
2022/01/03 07:43:07;;;;;;;5.32;1.10;;;11.80;56.60;;;;;;4978184;28;20217;-79
2022/01/03 07:45:35;;;;;;;3.85;1.20;;;11.80;56.50;;;;;;4980557;28;20197;-79
2022/01/03 07:48:05;;;;;;;3.85;1.20;;;11.70;56.20;;;;;;4972906;28;20194;-79
2022/01/03 07:50:36;;;;;;;6.28;1.40;;;11.70;56.20;;;;;;4973288;28;20525;-79
2022/01/03 07:53:04;;;;;;;4.32;1.30;;;11.80;56.30;;;;;;4973527;28;20208;-79
2022/01/03 07:55:32;;;;;;;4.80;1.35;;;11.80;56.30;;;;;;4973311;28;20198;-79
2022/01/03 07:58:04;;;;;;;5.97;1.33;;;11.90;56.30;;;;;;4977025;28;20256;-79
2022/01/03 08:00:31;;;;;;;6.13;1.60;;;11.90;56.30;;;;;;4974211;28;20194;-78
2022/01/03 08:02:58;;;;;;;4.45;1.13;;;11.90;56.10;;;;;;4972946;28;20225;-80
2022/01/03 08:05:26;;;;;;;4.32;1.20;;;11.90;56.20;;;;;;4974895;28;20623;-79
2022/01/03 08:07:55;;;;;;;4.97;1.60;;;11.90;55.90;;;;;;4973183;28;20193;-80
2022/01/03 08:10:23;;;;;;;2.30;1.20;;;12.00;55.80;;;;;;4973258;28;20248;-79
2022/01/03 08:12:50;;;;;;;4.07;1.38;;;12.00;55.60;;;;;;4975856;28;20181;-80
2022/01/03 08:15:17;;;;;;;2.70;1.40;;;12.00;55.50;;;;;;4990157;28;20233;-80
2022/01/03 08:17:46;;;;;;;5.00;1.70;;;12.00;55.40;;;;;;4993292;28;20221;-80
2022/01/03 08:20:14;;;;;;;3.53;1.35;;;12.10;55.30;;;;;;4980066;28;20496;-80
2022/01/03 08:22:41;;;;;;;7.18;1.40;;;12.10;55.20;;;;;;4994317;28;20757;-80
2022/01/03 08:25:10;;;;;;;3.53;1.30;;;12.10;55.00;;;;;;4994004;28;20575;-79
2022/01/03 08:27:37;;;;;;;6.07;1.30;;;12.10;54.90;;;;;;4993952;28;20196;-79
2022/01/03 08:30:05;;;;;;;3.73;1.00;;;12.20;55.00;;;;;;4977336;28;20244;-79
2022/01/03 08:32:32;;;;;;;7.95;1.60;;;12.20;54.90;;;;;;4978463;28;20819;-79
2022/01/03 08:34:59;;;;;;;2.00;1.00;;;12.30;54.60;;;;;;4980183;28;20198;-80
2022/01/03 08:37:26;;;;;;;3.03;1.50;;;12.30;54.30;;;;;;4979850;28;20698;-78
2022/01/03 08:39:54;;;;;;;4.13;1.48;;;12.20;54.20;;;;;;4976447;28;20676;-79
2022/01/03 08:42:24;;;;;;;4.72;1.30;;;12.30;54.00;;;;;;4992702;28;20294;-80
2022/01/03 08:44:51;;;;;;;3.03;1.42;;;12.30;54.00;;;;;;4994040;28;20797;-79
2022/01/03 08:47:18;;;;;;;3.13;1.00;;;12.30;53.90;;;;;;4979584;28;20229;-80
2022/01/03 08:49:45;;;;;;;2.70;1.50;;;12.30;53.90;;;;;;4979205;28;20190;-80
2022/01/03 08:52:12;;;;;;;3.45;0.90;;;12.40;54.00;;;;;;4977282;28;20646;-79
2022/01/03 08:54:39;;;;;;;3.53;1.13;;;12.50;53.80;;;;;;4980175;28;20254;-80
2022/01/03 08:57:06;;;;;;;6.40;1.25;;;12.70;53.80;;;;;;4975781;28;20225;-79
2022/01/03 08:59:35;;;;;;;2.20;0.85;;;12.80;53.10;;;;;;4977312;28;20186;-80
2022/01/03 09:02:02;;;;;;;3.13;1.00;;;13.00;52.90;;;;;;4975955;28;20308;-79
2022/01/03 09:04:29;;;;;;;3.95;1.05;;;13.10;52.60;;;;;;4977927;28;20190;-80
2022/01/03 09:06:57;;;;;;;2.30;0.97;;;13.20;52.70;;;;;;4987091;28;20225;-79
2022/01/03 09:09:27;;;;;;;3.07;1.30;;;13.30;52.50;;;;;;4990987;28;20444;-80
2022/01/03 09:11:54;;;;;;;3.30;1.20;;;13.40;52.20;;;;;;4987149;28;20445;-80
2022/01/03 09:14:21;;;;;;;2.90;1.40;;;13.50;51.70;;;;;;4988990;28;20479;-80
2022/01/03 09:16:49;;;;;;;4.50;1.40;;;13.50;51.40;;;;;;4990865;28;20440;-80
2022/01/03 09:19:16;;;;;;;2.92;1.10;;;13.40;51.20;;;;;;4990760;28;20510;-80
2022/01/03 09:21:43;;;;;;;3.30;1.20;;;13.50;51.30;;;;;;4991831;28;20203;-80
2022/01/03 09:24:27;;;;;;;6.27;1.00;;;13.50;51.30;;;;;;4990781;28;20839;-79
2022/01/03 09:29:38;;;;;;;5.90;1.50;;;13.50;51.40;;;;;;4986741;28;20498;-80
2022/01/03 09:32:08;;;;;;;4.70;1.33;;;13.40;51.20;;;;;;4990386;28;20475;-80
2022/01/03 09:34:35;;;;;;;6.53;2.00;;;13.50;51.40;;;;;;4987710;28;20487;-77
2022/01/03 09:37:03;;;;;;;5.87;1.20;;;13.50;51.40;;;;;;4988378;28;20480;-80
2022/01/03 09:39:30;;;;;;;3.70;1.40;;;13.40;51.00;;;;;;4988315;28;20994;-81
2022/01/03 09:42:06;;;;;;;4.63;1.23;;;13.40;51.30;;;;;;4979658;28;20808;-72
2022/01/03 09:44:35;;;;;;;5.27;1.10;;;13.50;51.10;;;;;;4982781;28;20471;-80
2022/01/03 09:47:06;;;;;;;2.47;0.80;;;13.50;51.00;;;;;;4988424;28;20448;-79
2022/01/03 09:49:36;;;;;;;4.03;1.50;;;13.50;51.50;;;;;;4987319;28;20444;-80
2022/01/03 09:52:05;;;;;;;4.10;1.10;;;13.60;51.30;;;;;;4988090;28;20443;-80
2022/01/03 09:54:33;;;;;;;4.93;1.30;;;13.70;51.00;;;;;;4988975;28;20518;-77
2022/01/03 09:57:02;;;;;;;3.03;1.20;;;13.80;50.80;;;;;;4990256;28;20267;-81
2022/01/03 09:59:30;;;;;;;2.37;1.10;;;14.00;50.40;;;;;;4990785;28;20530;-80
2022/01/03 10:01:58;;;;;;;4.40;1.37;;;14.20;50.00;;;;;;4990661;28;20965;-81
2022/01/03 10:04:26;;;;;;;2.80;1.33;;;14.40;49.80;;;;;;4990695;28;20462;-81
2022/01/03 10:06:54;;;;;;;2.63;1.20;;;14.60;49.30;;;;;;4990766;28;20519;-81
2022/01/03 10:09:22;;;;;;;4.93;1.67;;;14.80;48.60;;;;;;4988464;28;20498;-80
2022/01/03 10:11:50;;;;;;;3.20;1.27;;;15.10;48.60;;;;;;4989658;28;20523;-79
2022/01/03 10:14:18;;;;;;;6.77;1.90;;;15.40;48.50;;;;;;4983830;28;20476;-80
2022/01/03 10:16:47;;;;;;;3.80;1.20;;;15.60;47.40;;;;;;4988594;28;20448;-79
2022/01/03 10:19:14;;;;;;;2.50;1.30;;;15.80;46.80;;;;;;4987790;28;20470;-80
2022/01/03 10:21:43;;;;;;;5.53;1.50;;;16.00;46.30;;;;;;4988526;28;20436;-76
2022/01/03 10:24:15;;;;;;;2.50;0.80;;;16.20;46.10;;;;;;4986130;28;20521;-81
2022/01/03 10:26:43;;;;;;;4.07;1.80;;;16.40;45.10;;;;;;4985391;28;20443;-75
2022/01/03 10:29:19;;;;;;;3.57;1.10;;;16.40;44.90;;;;;;4987609;28;20456;-80
2022/01/03 10:31:48;;;;;;;5.43;1.20;;;16.40;44.50;;;;;;4989618;28;20781;-80
2022/01/03 10:34:19;;;;;;;2.67;1.10;;;16.40;44.40;;;;;;4986957;28;20456;-80
2022/01/03 10:36:49;;;;;;;9.07;1.40;;;16.50;44.30;;;;;;4988315;28;20448;-81
2022/01/03 10:39:21;;;;;;;3.63;0.90;;;16.70;44.50;;;;;;4987566;28;20449;-80
2022/01/03 10:41:50;;;;;;;2.10;0.70;;;16.90;44.30;;;;;;4990315;28;20456;-81
2022/01/03 10:44:32;;;;;;;2.27;0.93;;;17.10;43.80;;;;;;4985950;28;20499;-80
2022/01/03 10:47:01;;;;;;;3.80;1.20;;;17.20;43.30;;;;;;4989407;28;20536;-81
2022/01/03 10:49:29;;;;;;;6.47;1.40;;;17.00;42.60;;;;;;4987328;28;20449;-79
2022/01/03 10:52:12;;;;;;;4.13;1.33;;;16.70;42.20;;;;;;4988346;28;20472;-80
2022/01/03 10:54:41;;;;;;;4.63;1.43;;;16.40;42.90;;;;;;4986075;28;20502;-79
2022/01/03 10:57:08;;;;;;;4.27;1.40;;;16.20;43.10;;;;;;4985328;28;20531;-80
2022/01/03 10:59:36;;;;;;;5.33;1.90;;;16.00;43.20;;;;;;4986895;28;20455;-80
2022/01/03 11:02:06;;;;;;;4.70;1.60;;;15.80;43.50;;;;;;4986776;28;20448;-80
2022/01/03 11:04:39;;;;;;;3.77;1.90;;;15.70;44.00;;;;;;4986520;28;20492;-79
2022/01/03 11:10:43;;;;;;;4.50;1.10;;;15.50;44.00;;;;;;4987500;28;20441;-80
2022/01/03 11:13:15;;;;;;;4.17;1.00;;;15.40;44.80;;;;;;4987328;28;20502;-80
2022/01/03 11:15:49;;;;;;;4.23;1.70;;;15.30;44.90;;;;;;4983502;28;20432;-79
2022/01/03 11:18:22;;;;;;;3.40;1.07;;;15.10;45.20;;;;;;4987919;28;20518;-80
2022/01/03 11:21:01;;;;;;;5.50;1.10;;;15.00;45.40;;;;;;4986187;28;20463;-80
2022/01/03 11:23:30;;;;;;;4.87;1.13;;;14.80;45.30;;;;;;4988278;28;20488;-74
2022/01/03 11:25:58;;;;;;;3.47;1.17;;;14.70;45.40;;;;;;4988181;28;20519;-80
2022/01/03 11:28:29;;;;;;;2.50;1.23;;;14.70;45.70;;;;;;4986709;28;20449;-80
2022/01/03 11:30:59;;;;;;;5.43;2.27;;;14.70;45.50;;;;;;4986102;28;20531;-80
2022/01/03 11:33:27;;;;;;;4.43;2.07;;;14.80;45.90;;;;;;4988875;28;20908;-79
2022/01/03 11:35:54;;;;;;;4.43;1.50;;;14.80;46.10;;;;;;4975765;28;20507;-80
2022/01/03 11:38:26;;;;;;;3.43;1.00;;;14.80;46.50;;;;;;4972991;28;20972;-80
2022/01/03 11:40:55;;;;;;;5.90;1.40;;;14.70;45.60;;;;;;4974006;28;20532;-79
2022/01/03 11:43:23;;;;;;;2.83;1.20;;;14.70;46.00;;;;;;4981208;28;20644;-79
2022/01/03 11:45:51;;;;;;;2.10;1.10;;;14.50;45.80;;;;;;4972924;28;20798;-80
2022/01/03 11:48:19;;;;;;;3.57;1.13;;;14.50;46.20;;;;;;4986196;28;20503;-79
2022/01/03 11:50:50;;;;;;;2.30;1.07;;;14.30;45.90;;;;;;4972328;28;20507;-79
2022/01/03 11:53:23;;;;;;;4.07;1.07;;;14.20;46.10;;;;;;4974372;28;21127;-80
2022/01/03 11:56:01;;;;;;;3.77;1.43;;;14.20;46.50;;;;;;4973598;28;20441;-78
2022/01/03 11:59:00;;;;;;;6.57;1.83;;;14.10;46.80;;;;;;4990899;28;20452;-79
2022/01/03 12:04:22;;;;;;;3.00;1.27;;;13.90;47.00;;;;;;4990794;28;20506;-80
2022/01/03 12:06:49;;;;;;;7.20;1.90;;;13.80;46.80;;;;;;4990974;28;20444;-79
2022/01/03 12:09:18;;;;;;;3.60;1.27;;;13.80;46.90;;;;;;4989285;28;20484;-80
2022/01/03 12:11:52;;;;;;;4.23;1.13;;;13.80;47.20;;;;;;4991510;28;20450;-80
2022/01/03 12:14:22;;;;;;;2.87;1.53;;;13.70;47.10;;;;;;4986055;28;20445;-80
2022/01/03 12:16:51;;;;;;;7.50;1.20;;;13.70;47.20;;;;;;4977105;28;20441;-79
2022/01/03 12:19:33;;;;;;;2.70;1.10;;;13.70;47.30;;;;;;4972957;28;20527;-80
2022/01/03 12:22:11;;;;;;;3.67;1.30;;;13.70;47.50;;;;;;4981540;28;20928;-79
2022/01/03 12:25:02;;;;;;;6.50;1.70;;;13.70;47.50;;;;;;4973214;28;20484;-78
2022/01/03 12:27:37;;;;;;;6.17;1.70;;;13.70;47.50;;;;;;4973673;28;20456;-79
2022/01/03 12:30:25;;;;;;;6.13;1.70;;;13.60;47.70;;;;;;4978527;28;20443;-80
2022/01/03 12:33:19;;;;;;;7.67;1.40;;;13.60;47.40;;;;;;4976934;28;20435;-79
2022/01/03 12:35:48;;;;;;;5.73;1.83;;;13.50;47.10;;;;;;4991189;28;20448;-80
2022/01/03 12:38:23;;;;;;;6.17;2.30;;;13.50;47.10;;;;;;4991217;28;20499;-80
2022/01/03 12:40:56;;;;;;;4.90;1.30;;;13.40;47.40;;;;;;4990767;28;20543;-79
2022/01/03 12:43:49;;;;;;;5.30;1.80;;;13.30;47.20;;;;;;4989784;28;20495;-79
2022/01/03 12:46:23;;;;;;;4.07;1.30;;;13.30;47.50;;;;;;4989516;28;20986;-79
2022/01/03 12:48:52;;;;;;;2.90;1.63;;;13.20;47.20;;;;;;4981031;28;20448;-79
2022/01/03 12:51:19;;;;;;;2.73;1.40;;;13.20;46.70;;;;;;4987255;28;20436;-79
2022/01/03 12:53:53;;;;;;;6.90;1.03;;;13.20;45.70;;;;;;4991228;28;20998;-79
2022/01/03 12:56:29;;;;;;;1.83;0.90;;;13.10;45.30;;;;;;4987661;28;20439;-78
2022/01/03 12:58:58;;;;;;;1.90;1.00;;;13.20;45.30;;;;;;4987927;28;20519;-79
2022/01/03 13:01:33;;;;;;;2.27;1.23;;;13.20;44.20;;;;;;4973111;28;20445;-79
2022/01/03 13:04:04;;;;;;;2.80;1.10;;;13.10;43.70;;;;;;4977212;28;20537;-79
2022/01/03 13:06:33;;;;;;;2.43;0.87;;;13.10;43.80;;;;;;4977880;28;20445;-79
2022/01/03 13:09:18;;;;;;;2.30;1.08;;;13.10;43.40;;;;;;4993903;28;20506;-78
2022/01/03 13:11:47;;;;;;;1.80;0.80;;;13.20;43.70;;;;;;4993168;28;20216;-79
2022/01/03 13:14:18;;;;;;;2.50;1.10;;;13.20;43.40;;;;;;4992721;28;20842;-79
2022/01/03 13:16:49;;;;;;;3.10;0.70;;;13.10;42.80;;;;;;4991076;28;20631;-79
2022/01/03 13:19:19;;;;;;;3.10;0.90;;;13.10;43.00;;;;;;4975158;28;20476;-79